KAXX

Angel Fire Airport

Angel Fire, New Mexico, USA
METAR KAXX 222135Z AUTO 11015G20KT 10SM BKN095 BKN110 14/M05 A3019 RMK AO2 T01391052
Observed Flight Rules
Apr-22 @ 21:35 UTC (15 minutes ago) Visual Flight Rules
Wind Visibility Clouds
110° at 15 knots
 Gusting to 20 knots
10 miles
  • Broken at 9,500' AGL
  • Broken at 11,000' AGL
Temperatures Readings
Current 14°C / 57°F
Dewpoint -5°C / 23°F
Humidity 27%
Altimeter 30.19" Hg
Pressure 1022 hPa
Elevation 2548
METAR KAXX 222135Z AUTO 11015G20KT 10SM BKN095 BKN110 14/M05 A3019 RMK AO2 T01391052
Observed Flight Rules
Apr-22 @ 21:35 UTC
(15 minutes ago)
VFR
Wind Visibility
110° at 15 knots
 Gusting to 20 knots
10 miles
Clouds
  • Broken at 9,500' AGL
  • Broken at 11,000' AGL
Temperature Dewpoint
14°C / 57°F -5°C / 23°F
Humidity Altimeter Pressure
27% 30.19" Hg 1022 hPa